sensor_id;sensor_type;location;lat;lon;timestamp;P1;durP1;ratioP1;P2;durP2;ratioP2
16928;SDS011;8581;47.334;11.190;2023-04-10T00:01:48;10.37;;;9.27;;
16928;SDS011;8581;47.334;11.190;2023-04-10T00:04:20;12.03;;;10.43;;
16928;SDS011;8581;47.334;11.190;2023-04-10T00:06:51;12.60;;;10.17;;
16928;SDS011;8581;47.334;11.190;2023-04-10T00:09:23;11.77;;;10.57;;
16928;SDS011;8581;47.334;11.190;2023-04-10T00:11:54;11.47;;;10.07;;
16928;SDS011;8581;47.334;11.190;2023-04-10T00:14:26;11.50;;;10.30;;
16928;SDS011;8581;47.334;11.190;2023-04-10T00:16:58;10.90;;;9.77;;
16928;SDS011;8581;47.334;11.190;2023-04-10T00:19:29;11.17;;;9.77;;
16928;SDS011;8581;47.334;11.190;2023-04-10T00:22:01;10.70;;;9.00;;
16928;SDS011;8581;47.334;11.190;2023-04-10T00:24:32;10.73;;;9.17;;
16928;SDS011;8581;47.334;11.190;2023-04-10T00:27:04;10.97;;;9.87;;
16928;SDS011;8581;47.334;11.190;2023-04-10T00:29:36;11.67;;;9.73;;
16928;SDS011;8581;47.334;11.190;2023-04-10T00:32:07;10.60;;;9.40;;
16928;SDS011;8581;47.334;11.190;2023-04-10T00:34:39;10.83;;;9.00;;
16928;SDS011;8581;47.334;11.190;2023-04-10T00:37:10;10.73;;;9.60;;
16928;SDS011;8581;47.334;11.190;2023-04-10T00:39:42;10.33;;;9.30;;
16928;SDS011;8581;47.334;11.190;2023-04-10T00:42:14;11.37;;;10.00;;
16928;SDS011;8581;47.334;11.190;2023-04-10T00:44:45;12.27;;;10.60;;
16928;SDS011;8581;47.334;11.190;2023-04-10T00:47:17;13.17;;;11.27;;
16928;SDS011;8581;47.334;11.190;2023-04-10T00:49:48;12.13;;;10.73;;
16928;SDS011;8581;47.334;11.190;2023-04-10T00:52:20;13.40;;;11.30;;
16928;SDS011;8581;47.334;11.190;2023-04-10T00:54:52;11.43;;;10.23;;
16928;SDS011;8581;47.334;11.190;2023-04-10T00:57:23;12.53;;;11.20;;
16928;SDS011;8581;47.334;11.190;2023-04-10T00:59:55;12.20;;;10.37;;
16928;SDS011;8581;47.334;11.190;2023-04-10T01:02:27;12.87;;;11.33;;
16928;SDS011;8581;47.334;11.190;2023-04-10T01:04:58;12.23;;;10.93;;
16928;SDS011;8581;47.334;11.190;2023-04-10T01:07:37;15.23;;;12.80;;
16928;SDS011;8581;47.334;11.190;2023-04-10T01:13:02;14.33;;;12.10;;
16928;SDS011;8581;47.334;11.190;2023-04-10T01:15:30;13.97;;;12.33;;
16928;SDS011;8581;47.334;11.190;2023-04-10T01:18:07;13.30;;;11.90;;
16928;SDS011;8581;47.334;11.190;2023-04-10T01:20:36;13.60;;;12.20;;
16928;SDS011;8581;47.334;11.190;2023-04-10T01:23:30;12.77;;;11.43;;
16928;SDS011;8581;47.334;11.190;2023-04-10T01:26:02;12.30;;;11.00;;
16928;SDS011;8581;47.334;11.190;2023-04-10T01:31:15;11.60;;;10.40;;
16928;SDS011;8581;47.334;11.190;2023-04-10T01:33:47;11.60;;;10.50;;
16928;SDS011;8581;47.334;11.190;2023-04-10T01:36:20;10.63;;;9.63;;
16928;SDS011;8581;47.334;11.190;2023-04-10T01:38:50;10.33;;;9.33;;
16928;SDS011;8581;47.334;11.190;2023-04-10T01:41:22;12.73;;;11.43;;
16928;SDS011;8581;47.334;11.190;2023-04-10T01:43:53;14.03;;;12.53;;
16928;SDS011;8581;47.334;11.190;2023-04-10T01:46:25;12.80;;;11.53;;
16928;SDS011;8581;47.334;11.190;2023-04-10T01:48:56;13.07;;;11.77;;
16928;SDS011;8581;47.334;11.190;2023-04-10T01:51:28;12.37;;;11.07;;
16928;SDS011;8581;47.334;11.190;2023-04-10T01:54:00;12.20;;;10.90;;
16928;SDS011;8581;47.334;11.190;2023-04-10T01:56:31;12.60;;;11.30;;
16928;SDS011;8581;47.334;11.190;2023-04-10T01:59:03;14.57;;;12.57;;
16928;SDS011;8581;47.334;11.190;2023-04-10T02:01:34;13.70;;;12.30;;
16928;SDS011;8581;47.334;11.190;2023-04-10T02:04:06;13.17;;;11.77;;
16928;SDS011;8581;47.334;11.190;2023-04-10T02:06:43;13.17;;;11.87;;
16928;SDS011;8581;47.334;11.190;2023-04-10T02:09:18;11.80;;;10.60;;
16928;SDS011;8581;47.334;11.190;2023-04-10T02:11:53;12.10;;;10.83;;
16928;SDS011;8581;47.334;11.190;2023-04-10T02:14:25;11.87;;;10.57;;
16928;SDS011;8581;47.334;11.190;2023-04-10T02:16:57;13.63;;;12.13;;
16928;SDS011;8581;47.334;11.190;2023-04-10T02:19:29;13.87;;;12.37;;
16928;SDS011;8581;47.334;11.190;2023-04-10T02:22:00;12.67;;;11.37;;
16928;SDS011;8581;47.334;11.190;2023-04-10T02:24:31;14.17;;;12.67;;
16928;SDS011;8581;47.334;11.190;2023-04-10T02:27:03;12.90;;;11.57;;
16928;SDS011;8581;47.334;11.190;2023-04-10T02:29:35;12.53;;;10.97;;
16928;SDS011;8581;47.334;11.190;2023-04-10T02:32:06;12.50;;;11.20;;
16928;SDS011;8581;47.334;11.190;2023-04-10T02:34:38;12.50;;;11.20;;
16928;SDS011;8581;47.334;11.190;2023-04-10T02:37:10;13.07;;;11.67;;
16928;SDS011;8581;47.334;11.190;2023-04-10T02:39:41;14.40;;;12.67;;
16928;SDS011;8581;47.334;11.190;2023-04-10T02:42:13;14.77;;;12.77;;
16928;SDS011;8581;47.334;11.190;2023-04-10T02:44:46;15.03;;;13.07;;
16928;SDS011;8581;47.334;11.190;2023-04-10T02:47:16;16.13;;;13.33;;
16928;SDS011;8581;47.334;11.190;2023-04-10T02:49:48;16.50;;;13.90;;
16928;SDS011;8581;47.334;11.190;2023-04-10T02:52:19;17.03;;;13.63;;
16928;SDS011;8581;47.334;11.190;2023-04-10T02:54:51;16.10;;;14.00;;
16928;SDS011;8581;47.334;11.190;2023-04-10T02:57:22;17.53;;;14.30;;
16928;SDS011;8581;47.334;11.190;2023-04-10T02:59:54;17.90;;;14.30;;
16928;SDS011;8581;47.334;11.190;2023-04-10T03:02:26;16.50;;;14.03;;
16928;SDS011;8581;47.334;11.190;2023-04-10T03:04:59;17.37;;;13.37;;
16928;SDS011;8581;47.334;11.190;2023-04-10T03:07:29;18.47;;;14.80;;
16928;SDS011;8581;47.334;11.190;2023-04-10T03:10:01;17.43;;;14.03;;
16928;SDS011;8581;47.334;11.190;2023-04-10T03:12:32;16.27;;;14.03;;
16928;SDS011;8581;47.334;11.190;2023-04-10T03:15:04;15.70;;;13.03;;
16928;SDS011;8581;47.334;11.190;2023-04-10T03:17:36;16.10;;;13.03;;
16928;SDS011;8581;47.334;11.190;2023-04-10T03:20:09;16.83;;;13.97;;
16928;SDS011;8581;47.334;11.190;2023-04-10T03:22:41;17.13;;;13.70;;
16928;SDS011;8581;47.334;11.190;2023-04-10T03:25:13;16.00;;;13.37;;
16928;SDS011;8581;47.334;11.190;2023-04-10T03:27:44;17.20;;;14.03;;
16928;SDS011;8581;47.334;11.190;2023-04-10T03:30:16;16.63;;;13.80;;
16928;SDS011;8581;47.334;11.190;2023-04-10T03:32:48;17.10;;;14.13;;
16928;SDS011;8581;47.334;11.190;2023-04-10T03:35:19;17.00;;;13.60;;
16928;SDS011;8581;47.334;11.190;2023-04-10T03:37:51;16.90;;;13.93;;
16928;SDS011;8581;47.334;11.190;2023-04-10T03:40:23;17.83;;;14.10;;
16928;SDS011;8581;47.334;11.190;2023-04-10T03:42:54;16.43;;;14.00;;
16928;SDS011;8581;47.334;11.190;2023-04-10T03:45:26;16.83;;;13.93;;
16928;SDS011;8581;47.334;11.190;2023-04-10T03:47:57;16.97;;;12.73;;
16928;SDS011;8581;47.334;11.190;2023-04-10T03:50:29;16.33;;;13.17;;
16928;SDS011;8581;47.334;11.190;2023-04-10T03:53:01;16.47;;;13.17;;
16928;SDS011;8581;47.334;11.190;2023-04-10T03:55:32;15.23;;;12.03;;
16928;SDS011;8581;47.334;11.190;2023-04-10T03:58:04;16.23;;;13.17;;
16928;SDS011;8581;47.334;11.190;2023-04-10T04:00:35;15.20;;;12.83;;
16928;SDS011;8581;47.334;11.190;2023-04-10T04:03:07;14.47;;;12.30;;
16928;SDS011;8581;47.334;11.190;2023-04-10T04:05:39;15.20;;;12.90;;
16928;SDS011;8581;47.334;11.190;2023-04-10T04:08:10;14.23;;;11.63;;
16928;SDS011;8581;47.334;11.190;2023-04-10T04:10:42;15.07;;;11.63;;
16928;SDS011;8581;47.334;11.190;2023-04-10T04:13:13;16.00;;;12.33;;
16928;SDS011;8581;47.334;11.190;2023-04-10T04:15:45;16.13;;;12.03;;
16928;SDS011;8581;47.334;11.190;2023-04-10T04:18:17;14.53;;;11.83;;
16928;SDS011;8581;47.334;11.190;2023-04-10T04:20:48;17.47;;;13.27;;
16928;SDS011;8581;47.334;11.190;2023-04-10T04:23:20;15.70;;;13.00;;
16928;SDS011;8581;47.334;11.190;2023-04-10T04:25:52;14.50;;;11.60;;
16928;SDS011;8581;47.334;11.190;2023-04-10T04:28:23;13.73;;;11.70;;
16928;SDS011;8581;47.334;11.190;2023-04-10T04:30:55;13.63;;;11.80;;
16928;SDS011;8581;47.334;11.190;2023-04-10T04:33:26;14.20;;;11.70;;
16928;SDS011;8581;47.334;11.190;2023-04-10T04:35:58;13.57;;;11.30;;
16928;SDS011;8581;47.334;11.190;2023-04-10T04:38:29;14.70;;;11.67;;
16928;SDS011;8581;47.334;11.190;2023-04-10T04:41:01;13.90;;;11.43;;
16928;SDS011;8581;47.334;11.190;2023-04-10T04:43:33;13.93;;;11.60;;
16928;SDS011;8581;47.334;11.190;2023-04-10T04:46:04;14.47;;;11.53;;
16928;SDS011;8581;47.334;11.190;2023-04-10T04:48:36;14.17;;;12.07;;
16928;SDS011;8581;47.334;11.190;2023-04-10T04:51:08;12.80;;;10.77;;
16928;SDS011;8581;47.334;11.190;2023-04-10T04:53:40;13.83;;;11.47;;
16928;SDS011;8581;47.334;11.190;2023-04-10T04:56:11;14.53;;;11.20;;
16928;SDS011;8581;47.334;11.190;2023-04-10T04:58:43;14.53;;;12.07;;
16928;SDS011;8581;47.334;11.190;2023-04-10T05:01:14;12.80;;;11.03;;
16928;SDS011;8581;47.334;11.190;2023-04-10T05:03:46;14.50;;;11.70;;
16928;SDS011;8581;47.334;11.190;2023-04-10T05:06:18;14.97;;;11.83;;
16928;SDS011;8581;47.334;11.190;2023-04-10T05:08:49;14.80;;;11.73;;
16928;SDS011;8581;47.334;11.190;2023-04-10T05:11:21;15.50;;;11.70;;
16928;SDS011;8581;47.334;11.190;2023-04-10T05:13:53;15.53;;;11.87;;
16928;SDS011;8581;47.334;11.190;2023-04-10T05:16:24;14.57;;;12.47;;
16928;SDS011;8581;47.334;11.190;2023-04-10T05:18:56;15.07;;;13.40;;
16928;SDS011;8581;47.334;11.190;2023-04-10T05:21:27;16.73;;;13.60;;
16928;SDS011;8581;47.334;11.190;2023-04-10T05:23:59;15.83;;;12.60;;
16928;SDS011;8581;47.334;11.190;2023-04-10T05:26:30;15.17;;;12.80;;
16928;SDS011;8581;47.334;11.190;2023-04-10T05:29:02;15.77;;;12.60;;
16928;SDS011;8581;47.334;11.190;2023-04-10T05:31:34;15.47;;;11.37;;
16928;SDS011;8581;47.334;11.190;2023-04-10T05:34:05;13.67;;;11.27;;
16928;SDS011;8581;47.334;11.190;2023-04-10T05:36:37;13.73;;;11.93;;
16928;SDS011;8581;47.334;11.190;2023-04-10T05:39:08;15.27;;;12.33;;
16928;SDS011;8581;47.334;11.190;2023-04-10T05:41:40;15.30;;;12.50;;
16928;SDS011;8581;47.334;11.190;2023-04-10T05:44:12;15.07;;;12.50;;
16928;SDS011;8581;47.334;11.190;2023-04-10T05:46:43;13.47;;;12.07;;
16928;SDS011;8581;47.334;11.190;2023-04-10T05:49:15;14.70;;;13.00;;
16928;SDS011;8581;47.334;11.190;2023-04-10T05:51:47;16.07;;;12.97;;
16928;SDS011;8581;47.334;11.190;2023-04-10T05:54:18;17.07;;;14.30;;
16928;SDS011;8581;47.334;11.190;2023-04-10T05:56:50;14.70;;;13.13;;
16928;SDS011;8581;47.334;11.190;2023-04-10T05:59:22;15.90;;;13.70;;
16928;SDS011;8581;47.334;11.190;2023-04-10T06:01:53;16.23;;;13.40;;
16928;SDS011;8581;47.334;11.190;2023-04-10T06:04:25;14.57;;;12.47;;
16928;SDS011;8581;47.334;11.190;2023-04-10T06:06:56;13.40;;;11.80;;
16928;SDS011;8581;47.334;11.190;2023-04-10T06:09:28;13.20;;;11.90;;
16928;SDS011;8581;47.334;11.190;2023-04-10T06:11:59;13.37;;;11.97;;
16928;SDS011;8581;47.334;11.190;2023-04-10T06:14:31;14.30;;;12.60;;
16928;SDS011;8581;47.334;11.190;2023-04-10T06:17:03;13.97;;;12.57;;
16928;SDS011;8581;47.334;11.190;2023-04-10T06:19:34;13.47;;;12.07;;
16928;SDS011;8581;47.334;11.190;2023-04-10T06:22:06;13.57;;;12.17;;
16928;SDS011;8581;47.334;11.190;2023-04-10T06:24:37;13.00;;;11.50;;
16928;SDS011;8581;47.334;11.190;2023-04-10T06:27:09;13.73;;;12.20;;
16928;SDS011;8581;47.334;11.190;2023-04-10T06:29:41;13.13;;;11.73;;
16928;SDS011;8581;47.334;11.190;2023-04-10T06:32:12;14.87;;;13.10;;
16928;SDS011;8581;47.334;11.190;2023-04-10T06:34:44;14.77;;;13.27;;
16928;SDS011;8581;47.334;11.190;2023-04-10T06:37:15;13.50;;;12.00;;
16928;SDS011;8581;47.334;11.190;2023-04-10T06:39:47;14.23;;;12.27;;
16928;SDS011;8581;47.334;11.190;2023-04-10T06:42:19;13.43;;;12.10;;
16928;SDS011;8581;47.334;11.190;2023-04-10T06:44:50;12.70;;;11.37;;
16928;SDS011;8581;47.334;11.190;2023-04-10T06:47:22;11.60;;;10.50;;
16928;SDS011;8581;47.334;11.190;2023-04-10T06:49:53;9.43;;;8.53;;
16928;SDS011;8581;47.334;11.190;2023-04-10T06:52:25;8.53;;;7.73;;
16928;SDS011;8581;47.334;11.190;2023-04-10T06:54:57;8.23;;;7.50;;
16928;SDS011;8581;47.334;11.190;2023-04-10T06:57:28;8.50;;;7.70;;
16928;SDS011;8581;47.334;11.190;2023-04-10T07:00:00;7.37;;;6.67;;
16928;SDS011;8581;47.334;11.190;2023-04-10T07:02:32;6.67;;;6.07;;
16928;SDS011;8581;47.334;11.190;2023-04-10T07:05:03;6.10;;;5.57;;
16928;SDS011;8581;47.334;11.190;2023-04-10T07:07:35;4.70;;;4.30;;
16928;SDS011;8581;47.334;11.190;2023-04-10T07:10:07;4.97;;;4.57;;
16928;SDS011;8581;47.334;11.190;2023-04-10T07:12:39;3.77;;;3.47;;
16928;SDS011;8581;47.334;11.190;2023-04-10T07:15:11;7.90;;;7.30;;
16928;SDS011;8581;47.334;11.190;2023-04-10T07:17:43;7.10;;;3.43;;
16928;SDS011;8581;47.334;11.190;2023-04-10T07:20:14;11.73;;;10.73;;
16928;SDS011;8581;47.334;11.190;2023-04-10T07:22:46;3.77;;;3.47;;
16928;SDS011;8581;47.334;11.190;2023-04-10T07:25:17;3.70;;;3.40;;
16928;SDS011;8581;47.334;11.190;2023-04-10T07:27:49;7.30;;;6.50;;
16928;SDS011;8581;47.334;11.190;2023-04-10T07:30:21;9.27;;;7.67;;
16928;SDS011;8581;47.334;11.190;2023-04-10T07:32:52;6.63;;;6.03;;
16928;SDS011;8581;47.334;11.190;2023-04-10T07:35:24;5.83;;;3.93;;
16928;SDS011;8581;47.334;11.190;2023-04-10T07:37:55;3.33;;;3.03;;
16928;SDS011;8581;47.334;11.190;2023-04-10T07:40:27;10.77;;;9.77;;
16928;SDS011;8581;47.334;11.190;2023-04-10T07:42:59;3.97;;;3.57;;
16928;SDS011;8581;47.334;11.190;2023-04-10T07:45:30;5.00;;;4.50;;
16928;SDS011;8581;47.334;11.190;2023-04-10T07:48:03;3.73;;;3.43;;
16928;SDS011;8581;47.334;11.190;2023-04-10T07:50:35;7.93;;;7.20;;
16928;SDS011;8581;47.334;11.190;2023-04-10T07:53:06;3.80;;;3.50;;
16928;SDS011;8581;47.334;11.190;2023-04-10T07:55:38;6.20;;;5.70;;
16928;SDS011;8581;47.334;11.190;2023-04-10T07:58:10;4.23;;;3.83;;
16928;SDS011;8581;47.334;11.190;2023-04-10T08:00:42;4.60;;;4.20;;
16928;SDS011;8581;47.334;11.190;2023-04-10T08:03:13;4.37;;;3.97;;
16928;SDS011;8581;47.334;11.190;2023-04-10T08:05:45;4.13;;;3.73;;
16928;SDS011;8581;47.334;11.190;2023-04-10T08:08:17;4.60;;;4.03;;
16928;SDS011;8581;47.334;11.190;2023-04-10T08:10:49;5.20;;;4.67;;
16928;SDS011;8581;47.334;11.190;2023-04-10T08:13:21;4.77;;;4.00;;
16928;SDS011;8581;47.334;11.190;2023-04-10T08:15:53;3.10;;;2.87;;
16928;SDS011;8581;47.334;11.190;2023-04-10T08:18:24;6.07;;;4.80;;
16928;SDS011;8581;47.334;11.190;2023-04-10T08:20:56;4.93;;;4.43;;
16928;SDS011;8581;47.334;11.190;2023-04-10T08:23:27;4.80;;;4.40;;
16928;SDS011;8581;47.334;11.190;2023-04-10T08:25:59;5.77;;;4.43;;
16928;SDS011;8581;47.334;11.190;2023-04-10T08:28:31;4.13;;;3.70;;
16928;SDS011;8581;47.334;11.190;2023-04-10T08:31:02;3.70;;;3.40;;
16928;SDS011;8581;47.334;11.190;2023-04-10T08:33:34;3.53;;;3.23;;
16928;SDS011;8581;47.334;11.190;2023-04-10T08:36:07;2.53;;;2.33;;
16928;SDS011;8581;47.334;11.190;2023-04-10T08:38:39;3.13;;;2.83;;
16928;SDS011;8581;47.334;11.190;2023-04-10T08:41:11;1.87;;;1.77;;
16928;SDS011;8581;47.334;11.190;2023-04-10T08:43:42;1.60;;;1.50;;
16928;SDS011;8581;47.334;11.190;2023-04-10T08:46:13;1.33;;;1.23;;
16928;SDS011;8581;47.334;11.190;2023-04-10T08:48:52;1.20;;;1.10;;
16928;SDS011;8581;47.334;11.190;2023-04-10T08:51:25;1.10;;;1.00;;
16928;SDS011;8581;47.334;11.190;2023-04-10T08:53:57;1.70;;;1.60;;
16928;SDS011;8581;47.334;11.190;2023-04-10T08:56:27;0.90;;;0.90;;
16928;SDS011;8581;47.334;11.190;2023-04-10T08:59:00;1.90;;;1.20;;
16928;SDS011;8581;47.334;11.190;2023-04-10T09:01:30;1.20;;;1.10;;
16928;SDS011;8581;47.334;11.190;2023-04-10T09:04:02;1.20;;;1.10;;
16928;SDS011;8581;47.334;11.190;2023-04-10T09:06:33;1.70;;;1.07;;
16928;SDS011;8581;47.334;11.190;2023-04-10T09:09:05;1.20;;;1.10;;
16928;SDS011;8581;47.334;11.190;2023-04-10T09:14:20;1.10;;;1.00;;
16928;SDS011;8581;47.334;11.190;2023-04-10T09:16:51;1.50;;;1.40;;
16928;SDS011;8581;47.334;11.190;2023-04-10T09:19:31;1.60;;;1.50;;
16928;SDS011;8581;47.334;11.190;2023-04-10T09:22:03;1.17;;;1.07;;
16928;SDS011;8581;47.334;11.190;2023-04-10T09:24:35;4.00;;;0.90;;
16928;SDS011;8581;47.334;11.190;2023-04-10T09:27:08;1.00;;;0.90;;
16928;SDS011;8581;47.334;11.190;2023-04-10T09:29:42;2.57;;;2.37;;
16928;SDS011;8581;47.334;11.190;2023-04-10T09:32:25;1.03;;;0.97;;
16928;SDS011;8581;47.334;11.190;2023-04-10T09:34:51;1.50;;;1.40;;
16928;SDS011;8581;47.334;11.190;2023-04-10T09:37:21;1.50;;;1.40;;
16928;SDS011;8581;47.334;11.190;2023-04-10T09:39:53;2.20;;;1.30;;
16928;SDS011;8581;47.334;11.190;2023-04-10T09:42:29;1.40;;;1.20;;
16928;SDS011;8581;47.334;11.190;2023-04-10T09:45:01;1.00;;;1.00;;
16928;SDS011;8581;47.334;11.190;2023-04-10T09:47:33;1.60;;;1.00;;
16928;SDS011;8581;47.334;11.190;2023-04-10T09:50:05;0.80;;;0.80;;
16928;SDS011;8581;47.334;11.190;2023-04-10T09:52:37;1.30;;;1.20;;
16928;SDS011;8581;47.334;11.190;2023-04-10T09:55:08;0.80;;;0.80;;
16928;SDS011;8581;47.334;11.190;2023-04-10T09:57:40;0.80;;;0.80;;
16928;SDS011;8581;47.334;11.190;2023-04-10T10:00:12;0.90;;;0.90;;
16928;SDS011;8581;47.334;11.190;2023-04-10T10:02:44;1.10;;;1.00;;
16928;SDS011;8581;47.334;11.190;2023-04-10T10:05:16;1.25;;;1.15;;
16928;SDS011;8581;47.334;11.190;2023-04-10T10:07:47;1.40;;;1.30;;
16928;SDS011;8581;47.334;11.190;2023-04-10T10:10:19;0.85;;;0.85;;
16928;SDS011;8581;47.334;11.190;2023-04-10T10:12:52;0.70;;;0.70;;
16928;SDS011;8581;47.334;11.190;2023-04-10T10:16:00;1.10;;;1.00;;
16928;SDS011;8581;47.334;11.190;2023-04-10T10:18:21;1.05;;;1.00;;
16928;SDS011;8581;47.334;11.190;2023-04-10T10:21:12;1.00;;;0.90;;
16928;SDS011;8581;47.334;11.190;2023-04-10T10:23:42;0.98;;;0.98;;
16928;SDS011;8581;47.334;11.190;2023-04-10T10:26:14;1.20;;;1.10;;
16928;SDS011;8581;47.334;11.190;2023-04-10T10:28:46;1.02;;;1.00;;
16928;SDS011;8581;47.334;11.190;2023-04-10T10:31:17;1.07;;;1.07;;
16928;SDS011;8581;47.334;11.190;2023-04-10T10:33:50;0.98;;;0.98;;
16928;SDS011;8581;47.334;11.190;2023-04-10T10:36:21;1.25;;;1.15;;
16928;SDS011;8581;47.334;11.190;2023-04-10T10:38:57;0.93;;;0.93;;
16928;SDS011;8581;47.334;11.190;2023-04-10T10:41:29;1.12;;;1.10;;
16928;SDS011;8581;47.334;11.190;2023-04-10T10:44:00;1.37;;;1.27;;
16928;SDS011;8581;47.334;11.190;2023-04-10T10:46:36;1.02;;;1.02;;
16928;SDS011;8581;47.334;11.190;2023-04-10T10:49:14;1.32;;;1.00;;
16928;SDS011;8581;47.334;11.190;2023-04-10T10:51:48;0.98;;;0.98;;
16928;SDS011;8581;47.334;11.190;2023-04-10T10:56:57;1.02;;;1.00;;
16928;SDS011;8581;47.334;11.190;2023-04-10T11:00:01;1.02;;;0.90;;
16928;SDS011;8581;47.334;11.190;2023-04-10T11:02:23;0.70;;;0.70;;
16928;SDS011;8581;47.334;11.190;2023-04-10T11:04:55;0.68;;;0.68;;
16928;SDS011;8581;47.334;11.190;2023-04-10T11:09:58;1.20;;;1.10;;
16928;SDS011;8581;47.334;11.190;2023-04-10T11:12:30;0.98;;;0.98;;
16928;SDS011;8581;47.334;11.190;2023-04-10T11:15:02;0.95;;;0.93;;
16928;SDS011;8581;47.334;11.190;2023-04-10T11:17:50;0.90;;;0.90;;
16928;SDS011;8581;47.334;11.190;2023-04-10T11:20:21;1.55;;;1.05;;
16928;SDS011;8581;47.334;11.190;2023-04-10T11:33:48;1.77;;;0.90;;
16928;SDS011;8581;47.334;11.190;2023-04-10T11:36:20;1.22;;;0.82;;
16928;SDS011;8581;47.334;11.190;2023-04-10T11:38:53;0.80;;;0.80;;
16928;SDS011;8581;47.334;11.190;2023-04-10T11:41:28;0.60;;;0.60;;
16928;SDS011;8581;47.334;11.190;2023-04-10T11:44:00;0.60;;;0.60;;
16928;SDS011;8581;47.334;11.190;2023-04-10T11:46:35;0.60;;;0.60;;
16928;SDS011;8581;47.334;11.190;2023-04-10T11:49:06;0.60;;;0.60;;
16928;SDS011;8581;47.334;11.190;2023-04-10T11:51:38;0.62;;;0.62;;
16928;SDS011;8581;47.334;11.190;2023-04-10T11:54:10;0.65;;;0.65;;
16928;SDS011;8581;47.334;11.190;2023-04-10T11:56:42;0.72;;;0.72;;
16928;SDS011;8581;47.334;11.190;2023-04-10T11:59:13;0.60;;;0.60;;
16928;SDS011;8581;47.334;11.190;2023-04-10T12:01:45;0.60;;;0.60;;
16928;SDS011;8581;47.334;11.190;2023-04-10T12:04:17;0.60;;;0.60;;
16928;SDS011;8581;47.334;11.190;2023-04-10T12:06:50;0.68;;;0.68;;
16928;SDS011;8581;47.334;11.190;2023-04-10T12:09:21;0.70;;;0.70;;
16928;SDS011;8581;47.334;11.190;2023-04-10T12:11:53;0.78;;;0.78;;
16928;SDS011;8581;47.334;11.190;2023-04-10T12:14:30;0.70;;;0.70;;
16928;SDS011;8581;47.334;11.190;2023-04-10T12:17:02;0.70;;;0.70;;
16928;SDS011;8581;47.334;11.190;2023-04-10T12:19:33;0.82;;;0.60;;
16928;SDS011;8581;47.334;11.190;2023-04-10T12:22:05;0.60;;;0.60;;
16928;SDS011;8581;47.334;11.190;2023-04-10T12:27:15;0.60;;;0.60;;
16928;SDS011;8581;47.334;11.190;2023-04-10T12:29:49;0.60;;;0.60;;
16928;SDS011;8581;47.334;11.190;2023-04-10T12:32:20;0.85;;;0.85;;
16928;SDS011;8581;47.334;11.190;2023-04-10T12:34:52;0.60;;;0.60;;
16928;SDS011;8581;47.334;11.190;2023-04-10T12:40:11;0.68;;;0.68;;
16928;SDS011;8581;47.334;11.190;2023-04-10T12:42:44;0.70;;;0.70;;
16928;SDS011;8581;47.334;11.190;2023-04-10T12:45:18;0.62;;;0.62;;
16928;SDS011;8581;47.334;11.190;2023-04-10T12:47:51;0.70;;;0.70;;
16928;SDS011;8581;47.334;11.190;2023-04-10T12:50:23;1.47;;;0.70;;
16928;SDS011;8581;47.334;11.190;2023-04-10T12:53:01;0.60;;;0.60;;
16928;SDS011;8581;47.334;11.190;2023-04-10T12:55:40;0.90;;;0.70;;
16928;SDS011;8581;47.334;11.190;2023-04-10T12:58:15;0.72;;;0.57;;
16928;SDS011;8581;47.334;11.190;2023-04-10T13:00:47;1.10;;;1.10;;
16928;SDS011;8581;47.334;11.190;2023-04-10T13:03:19;0.90;;;0.90;;
16928;SDS011;8581;47.334;11.190;2023-04-10T13:05:51;0.80;;;0.80;;
16928;SDS011;8581;47.334;11.190;2023-04-10T13:08:22;0.78;;;0.78;;
16928;SDS011;8581;47.334;11.190;2023-04-10T13:10:54;1.47;;;1.10;;
16928;SDS011;8581;47.334;11.190;2023-04-10T13:13:25;1.57;;;0.90;;
16928;SDS011;8581;47.334;11.190;2023-04-10T13:15:58;0.90;;;0.90;;
16928;SDS011;8581;47.334;11.190;2023-04-10T13:18:29;0.90;;;0.90;;
16928;SDS011;8581;47.334;11.190;2023-04-10T13:21:01;0.90;;;0.90;;
16928;SDS011;8581;47.334;11.190;2023-04-10T13:23:33;0.90;;;0.90;;
16928;SDS011;8581;47.334;11.190;2023-04-10T13:26:04;0.82;;;0.82;;
16928;SDS011;8581;47.334;11.190;2023-04-10T13:28:36;0.70;;;0.70;;
16928;SDS011;8581;47.334;11.190;2023-04-10T13:31:07;0.70;;;0.70;;
16928;SDS011;8581;47.334;11.190;2023-04-10T13:33:40;0.80;;;0.80;;
16928;SDS011;8581;47.334;11.190;2023-04-10T13:36:11;0.85;;;0.85;;
16928;SDS011;8581;47.334;11.190;2023-04-10T13:38:43;0.98;;;0.95;;
16928;SDS011;8581;47.334;11.190;2023-04-10T13:41:14;0.78;;;0.78;;
16928;SDS011;8581;47.334;11.190;2023-04-10T13:43:46;0.80;;;0.80;;
16928;SDS011;8581;47.334;11.190;2023-04-10T13:46:18;0.85;;;0.85;;
16928;SDS011;8581;47.334;11.190;2023-04-10T13:48:49;0.80;;;0.80;;
16928;SDS011;8581;47.334;11.190;2023-04-10T13:51:21;1.60;;;0.68;;
16928;SDS011;8581;47.334;11.190;2023-04-10T13:53:52;0.65;;;0.60;;
16928;SDS011;8581;47.334;11.190;2023-04-10T13:56:24;0.70;;;0.70;;
16928;SDS011;8581;47.334;11.190;2023-04-10T13:58:56;0.60;;;0.60;;
16928;SDS011;8581;47.334;11.190;2023-04-10T14:01:27;0.70;;;0.70;;
16928;SDS011;8581;47.334;11.190;2023-04-10T14:03:59;0.70;;;0.70;;
16928;SDS011;8581;47.334;11.190;2023-04-10T14:06:30;0.80;;;0.80;;
16928;SDS011;8581;47.334;11.190;2023-04-10T14:09:03;0.70;;;0.70;;
16928;SDS011;8581;47.334;11.190;2023-04-10T14:11:34;0.90;;;0.90;;
16928;SDS011;8581;47.334;11.190;2023-04-10T14:14:06;0.72;;;0.72;;
16928;SDS011;8581;47.334;11.190;2023-04-10T14:16:38;0.93;;;0.93;;
16928;SDS011;8581;47.334;11.190;2023-04-10T14:19:10;0.70;;;0.70;;
16928;SDS011;8581;47.334;11.190;2023-04-10T14:21:41;0.80;;;0.80;;
16928;SDS011;8581;47.334;11.190;2023-04-10T14:24:13;0.80;;;0.80;;
16928;SDS011;8581;47.334;11.190;2023-04-10T14:26:44;1.22;;;0.85;;
16928;SDS011;8581;47.334;11.190;2023-04-10T14:29:16;0.70;;;0.70;;
16928;SDS011;8581;47.334;11.190;2023-04-10T14:31:48;0.90;;;0.90;;
16928;SDS011;8581;47.334;11.190;2023-04-10T14:34:19;1.07;;;0.80;;
16928;SDS011;8581;47.334;11.190;2023-04-10T14:36:51;0.70;;;0.70;;
16928;SDS011;8581;47.334;11.190;2023-04-10T14:39:23;0.90;;;0.90;;
16928;SDS011;8581;47.334;11.190;2023-04-10T14:41:55;0.70;;;0.70;;
16928;SDS011;8581;47.334;11.190;2023-04-10T14:44:27;0.68;;;0.68;;
16928;SDS011;8581;47.334;11.190;2023-04-10T14:46:58;0.80;;;0.80;;
16928;SDS011;8581;47.334;11.190;2023-04-10T14:49:30;1.90;;;1.80;;
16928;SDS011;8581;47.334;11.190;2023-04-10T14:52:01;1.10;;;1.00;;
16928;SDS011;8581;47.334;11.190;2023-04-10T14:54:33;0.72;;;0.72;;
16928;SDS011;8581;47.334;11.190;2023-04-10T14:57:04;0.70;;;0.70;;
16928;SDS011;8581;47.334;11.190;2023-04-10T14:59:36;1.00;;;1.00;;
16928;SDS011;8581;47.334;11.190;2023-04-10T15:02:08;0.68;;;0.68;;
16928;SDS011;8581;47.334;11.190;2023-04-10T15:04:39;0.70;;;0.70;;
16928;SDS011;8581;47.334;11.190;2023-04-10T15:07:12;0.80;;;0.80;;
16928;SDS011;8581;47.334;11.190;2023-04-10T15:09:43;0.80;;;0.80;;
16928;SDS011;8581;47.334;11.190;2023-04-10T15:12:15;0.68;;;0.68;;
16928;SDS011;8581;47.334;11.190;2023-04-10T15:14:47;3.67;;;2.90;;
16928;SDS011;8581;47.334;11.190;2023-04-10T15:17:20;1.62;;;1.30;;
16928;SDS011;8581;47.334;11.190;2023-04-10T15:19:52;6.08;;;4.58;;
16928;SDS011;8581;47.334;11.190;2023-04-10T15:22:24;4.75;;;4.20;;
16928;SDS011;8581;47.334;11.190;2023-04-10T15:24:55;1.30;;;1.20;;
16928;SDS011;8581;47.334;11.190;2023-04-10T15:27:27;1.10;;;0.80;;
16928;SDS011;8581;47.334;11.190;2023-04-10T15:29:58;1.00;;;1.00;;
16928;SDS011;8581;47.334;11.190;2023-04-10T15:32:30;1.52;;;1.42;;
16928;SDS011;8581;47.334;11.190;2023-04-10T15:35:01;0.70;;;0.70;;